Terminal Aerodrome Forecast
Issued by NWS Spokane, WA

Home | Current Version | Previous Version | Text Only | Print | Product List | Glossary On
Versions: 1 2 3 4 5 6 7 8 9 10 11 12 13 14 15 16 17 18 19 20 21 22
000
FTUS46 KOTX 270523
TAFLWS
TAF
KLWS 270523Z 2706/2806 VRB03KT P6SM BKN200
     FM270900 14003KT P6SM OVC100
     FM271600 15007KT 1SM -SN OVC015
     FM272000 17006KT 4SM -RASN BR BKN015 OVC025=

USA.gov is the U.S. government's official web portal to all federal, state and local government web resources and services.